Time;durP1;ratioP1;P1;durP2;ratioP2;P2;SDS_P1;SDS_P2;PMS_P1;PMS_P2;Temp;Humidity;BMP_temperature;BMP_pressure;BME280_temperature;BME280_humidity;BME280_pressure;Samples;Min_cycle;Max_cycle;Signal;HPM_P1;HPM_P2
2023/03/06 00:01:16;;;;;;;5.20;1.80;;;;;;;3.03;81.28;99897.92;108574;1260;72367;-77
2023/03/06 00:03:43;;;;;;;5.00;1.50;;;;;;;3.04;81.68;99893.71;108526;1259;60202;-77
2023/03/06 00:06:17;;;;;;;4.20;1.70;;;;;;;3.03;81.40;99899.56;108566;1260;59641;-77
2023/03/06 00:08:47;;;;;;;3.40;1.60;;;;;;;3.03;81.27;99892.61;108675;1257;73394;-77
2023/03/06 00:11:24;;;;;;;5.60;1.50;;;;;;;3.02;81.35;99893.23;108815;1256;70369;-77
2023/03/06 00:13:52;;;;;;;4.60;1.80;;;;;;;3.02;81.34;99892.83;108910;1256;72399;-77
2023/03/06 00:16:19;;;;;;;5.80;1.80;;;;;;;3.01;81.41;99886.63;108734;1257;63096;-77
2023/03/06 00:18:48;;;;;;;3.20;1.50;;;;;;;3.01;81.28;99884.20;108792;1259;60370;-76
2023/03/06 00:21:15;;;;;;;2.60;1.40;;;;;;;2.99;81.33;99882.27;108724;1257;59060;-77
2023/03/06 00:23:42;;;;;;;4.50;1.80;;;;;;;3.03;81.06;99880.20;108810;1257;70390;-77
2023/03/06 00:26:09;;;;;;;5.50;1.80;;;;;;;3.02;81.25;99878.66;108817;1257;72456;-77
2023/03/06 00:28:37;;;;;;;3.40;1.40;;;;;;;3.01;81.01;99881.27;108719;1262;59697;-77
2023/03/06 00:31:07;;;;;;;4.10;1.60;;;;;;;3.01;81.11;99878.38;108844;1257;59598;-77
2023/03/06 00:33:34;;;;;;;4.90;1.70;;;;;;;3.01;80.99;99879.63;108782;1257;74841;-77
2023/03/06 00:36:04;;;;;;;5.40;1.80;;;;;;;3.00;81.07;99875.77;108860;1257;70852;-77
2023/03/06 00:38:34;;;;;;;4.30;1.50;;;;;;;3.00;81.41;99872.08;108821;1257;73335;-77
2023/03/06 00:41:12;;;;;;;3.10;1.90;;;;;;;2.97;81.13;99869.84;108794;1257;59667;-77
2023/03/06 00:43:57;;;;;;;6.00;1.80;;;;;;;2.97;80.99;99866.77;108815;1258;59583;-77
2023/03/06 00:46:23;;;;;;;5.60;1.90;;;;;;;2.97;81.40;99867.84;108826;1261;75523;-77
2023/03/06 00:48:53;;;;;;;4.90;1.70;;;;;;;2.96;81.51;99864.20;108763;1259;69871;-77
2023/03/06 00:51:30;;;;;;;4.80;2.00;;;;;;;2.95;81.56;99862.75;108829;1260;71210;-77
2023/03/06 00:54:02;;;;;;;4.90;1.80;;;;;;;2.94;81.48;99859.54;108788;1257;60146;-77
2023/03/06 00:56:32;;;;;;;4.50;1.60;;;;;;;2.95;81.71;99857.86;108587;1259;59593;-77
2023/03/06 00:59:10;;;;;;;3.90;1.90;;;;;;;2.93;81.62;99856.80;108741;1263;74683;-77
2023/03/06 01:01:40;;;;;;;7.60;2.20;;;;;;;2.94;81.64;99855.73;108768;1257;70303;-77
2023/03/06 01:04:08;;;;;;;6.30;1.80;;;;;;;2.93;81.74;99853.36;108858;1257;71763;-77
2023/03/06 01:06:41;;;;;;;4.50;1.80;;;;;;;2.92;81.71;99849.56;108779;1257;61265;-77
2023/03/06 01:09:14;;;;;;;4.00;1.90;;;;;;;2.92;81.74;99847.36;108455;1257;61381;-76
2023/03/06 01:11:41;;;;;;;5.90;1.80;;;;;;;2.92;81.95;99844.55;108801;1257;73475;-77
2023/03/06 01:14:08;;;;;;;4.60;1.90;;;;;;;2.91;81.99;99841.66;108722;1257;70879;-77
2023/03/06 01:16:38;;;;;;;4.70;2.00;;;;;;;2.90;81.98;99839.86;108822;1257;71169;-77
2023/03/06 01:19:10;;;;;;;4.20;1.90;;;;;;;2.88;81.97;99835.46;108818;1258;59607;-77
2023/03/06 01:21:36;;;;;;;4.00;1.90;;;;;;;2.88;82.15;99831.69;108830;1257;58908;-77
2023/03/06 01:24:04;;;;;;;4.20;1.90;;;;;;;2.87;82.22;99828.38;108872;1258;73712;-77
2023/03/06 01:26:31;;;;;;;4.70;1.80;;;;;;;2.87;82.32;99827.17;108865;1257;69139;-77
2023/03/06 01:29:00;;;;;;;4.10;2.10;;;;;;;2.86;82.65;99824.10;108815;1257;72498;-77
2023/03/06 01:31:28;;;;;;;5.00;2.00;;;;;;;2.83;82.48;99826.30;108520;1257;62375;-76
2023/03/06 01:34:02;;;;;;;4.30;1.90;;;;;;;2.83;82.61;99821.39;108715;1257;60380;-77
2023/03/06 01:36:33;;;;;;;5.30;2.10;;;;;;;2.85;82.63;99816.89;108790;1257;74074;-77
2023/03/06 01:39:02;;;;;;;6.60;2.40;;;;;;;2.83;82.50;99819.91;108742;1257;70116;-77
2023/03/06 01:41:33;;;;;;;4.20;1.80;;;;;;;2.83;82.60;99818.31;108755;1257;73224;-77
2023/03/06 01:44:09;;;;;;;6.50;2.20;;;;;;;2.82;82.93;99818.04;108750;1257;61955;-77
2023/03/06 01:46:42;;;;;;;5.00;2.20;;;;;;;2.83;82.67;99816.20;108763;1257;60640;-77
2023/03/06 01:49:17;;;;;;;4.70;2.30;;;;;;;2.83;82.69;99816.70;108678;1257;74693;-77
2023/03/06 01:52:25;;;;;;;4.90;2.20;;;;;;;2.85;82.66;99813.75;108779;1257;70187;-77
2023/03/06 01:57:45;;;;;;;4.30;2.20;;;;;;;2.84;82.87;99808.38;107782;1259;61349;-70
2023/03/06 02:00:20;;;;;;;4.30;2.10;;;;;;;2.82;82.98;99799.52;107354;1259;61212;-71
2023/03/06 02:02:52;;;;;;;5.10;2.10;;;;;;;2.81;83.23;99801.92;107801;1258;74007;-69
2023/03/06 02:05:20;;;;;;;5.50;2.30;;;;;;;2.77;83.34;99797.95;107056;1264;70734;-69
2023/03/06 02:07:48;;;;;;;3.90;2.10;;;;;;;2.76;83.50;99796.98;107487;1262;71129;-70
2023/03/06 02:10:17;;;;;;;5.10;2.40;;;;;;;2.75;83.66;99801.48;107448;1259;61259;-70
2023/03/06 02:12:45;;;;;;;4.80;2.30;;;;;;;2.73;83.75;99792.20;107388;1259;61373;-69
2023/03/06 02:15:16;;;;;;;5.20;2.20;;;;;;;2.70;83.70;99794.21;107528;1262;73574;-70
2023/03/06 02:17:45;;;;;;;7.40;2.70;;;;;;;2.71;83.80;99792.05;107069;1259;71569;-69
2023/03/06 02:20:20;;;;;;;5.70;2.30;;;;;;;2.68;84.30;99787.11;107221;1260;71134;-70
2023/03/06 02:23:14;;;;;;;5.70;2.50;;;;;;;2.68;84.20;99782.95;107475;1257;61244;-70
2023/03/06 02:25:44;;;;;;;5.00;2.40;;;;;;;2.67;84.22;99781.07;107631;1263;61244;-70
2023/03/06 02:28:16;;;;;;;5.10;2.50;;;;;;;2.69;84.22;99781.79;107097;1263;74291;-69
2023/03/06 02:30:45;;;;;;;5.60;2.60;;;;;;;2.69;84.24;99779.83;107482;1257;70946;-68
2023/03/06 02:33:17;;;;;;;6.50;2.70;;;;;;;2.70;84.19;99782.91;107653;1263;71492;-69
2023/03/06 02:35:56;;;;;;;4.80;2.30;;;;;;;2.70;84.38;99777.35;106799;1257;61452;-69
2023/03/06 02:38:27;;;;;;;5.40;2.70;;;;;;;2.71;84.28;99779.70;106835;1258;61351;-69
2023/03/06 02:40:56;;;;;;;4.60;2.70;;;;;;;2.71;84.25;99775.32;106673;1257;73148;-69
2023/03/06 02:43:28;;;;;;;5.40;2.60;;;;;;;2.70;84.37;99775.77;106654;1260;71396;-70
2023/03/06 02:45:54;;;;;;;6.10;3.10;;;;;;;2.68;84.22;99772.25;106643;1263;70800;-68
2023/03/06 02:48:21;;;;;;;5.20;2.50;;;;;;;2.68;84.42;99764.58;106300;1261;61372;-70
2023/03/06 02:50:48;;;;;;;8.30;3.00;;;;;;;2.70;84.43;99767.16;106658;1261;61664;-68
2023/03/06 02:53:17;;;;;;;4.90;2.50;;;;;;;2.71;84.31;99765.14;106430;1258;74552;-69
2023/03/06 02:55:45;;;;;;;7.30;3.00;;;;;;;2.71;84.30;99759.77;106811;1262;72174;-68
2023/03/06 02:58:15;;;;;;;6.00;2.70;;;;;;;2.72;84.28;99757.20;106405;1263;71261;-69
2023/03/06 03:00:42;;;;;;;5.30;2.80;;;;;;;2.72;84.34;99754.45;106889;1264;61321;-68
2023/03/06 03:03:09;;;;;;;6.80;2.60;;;;;;;2.70;84.32;99752.04;106714;1261;59111;-69
2023/03/06 03:05:35;;;;;;;5.20;2.70;;;;;;;2.67;84.49;99749.45;106646;1257;73131;-70
2023/03/06 03:08:02;;;;;;;4.90;2.70;;;;;;;2.64;84.71;99745.00;106259;1264;70443;-70
2023/03/06 03:10:30;;;;;;;5.40;2.50;;;;;;;2.63;84.67;99744.82;106340;1262;73396;-71
2023/03/06 03:12:59;;;;;;;5.90;2.70;;;;;;;2.60;84.73;99743.98;106970;1257;61353;-69
2023/03/06 03:15:26;;;;;;;5.20;2.60;;;;;;;2.59;84.73;99742.08;106688;1263;61166;-69
2023/03/06 03:17:53;;;;;;;5.10;2.40;;;;;;;2.53;84.94;99740.66;106580;1257;73131;-68
2023/03/06 03:20:22;;;;;;;8.30;3.10;;;;;;;2.52;85.05;99735.54;106278;1257;71047;-69
2023/03/06 03:22:56;;;;;;;5.70;2.80;;;;;;;2.51;85.35;99735.27;107012;1262;71309;-68
2023/03/06 03:25:25;;;;;;;5.00;2.60;;;;;;;2.50;85.12;99736.98;106447;1260;62278;-69
2023/03/06 03:27:52;;;;;;;5.50;2.80;;;;;;;2.47;85.25;99734.48;106500;1257;61278;-69
2023/03/06 03:30:19;;;;;;;4.70;2.70;;;;;;;2.46;85.26;99731.40;106516;1258;75724;-69
2023/03/06 03:32:46;;;;;;;4.90;2.60;;;;;;;2.45;85.36;99728.00;106949;1257;70037;-69
2023/03/06 03:35:13;;;;;;;5.80;3.10;;;;;;;2.45;85.14;99729.09;107480;1257;71121;-69
2023/03/06 03:37:40;;;;;;;6.70;2.70;;;;;;;2.45;85.39;99727.48;106681;1262;61278;-69
2023/03/06 03:40:10;;;;;;;5.80;2.70;;;;;;;2.45;85.46;99727.33;106612;1258;61379;-71
2023/03/06 03:42:39;;;;;;;5.30;2.70;;;;;;;2.45;85.60;99721.20;106670;1261;74641;-69
2023/03/06 03:45:06;;;;;;;5.00;2.60;;;;;;;2.44;85.41;99723.56;106817;1257;70970;-70
2023/03/06 03:47:33;;;;;;;4.90;2.60;;;;;;;2.43;85.22;99718.20;106531;1262;71141;-68
2023/03/06 03:50:00;;;;;;;6.60;2.50;;;;;;;2.41;85.39;99715.77;106776;1257;62773;-69
2023/03/06 03:52:29;;;;;;;5.50;2.40;;;;;;;2.39;85.37;99714.92;106609;1258;61826;-68
2023/03/06 03:54:56;;;;;;;6.30;2.40;;;;;;;2.38;85.46;99709.51;106299;1264;73225;-69
2023/03/06 03:57:24;;;;;;;6.50;2.60;;;;;;;2.37;85.37;99706.27;107320;1257;71225;-70
2023/03/06 03:59:50;;;;;;;4.40;2.60;;;;;;;2.37;85.54;99704.50;106722;1258;71223;-69
2023/03/06 04:02:20;;;;;;;6.60;2.70;;;;;;;2.37;85.48;99700.69;106885;1257;61692;-68
2023/03/06 04:04:47;;;;;;;4.90;2.40;;;;;;;2.36;85.39;99704.29;106716;1258;61161;-71
2023/03/06 04:07:14;;;;;;;7.00;2.60;;;;;;;2.37;85.54;99694.90;106741;1257;73526;-69
2023/03/06 04:09:44;;;;;;;4.90;2.10;;;;;;;2.36;85.57;99695.00;106857;1261;69710;-69
2023/03/06 04:12:11;;;;;;;7.40;2.60;;;;;;;2.34;85.46;99687.84;106417;1260;72602;-70
2023/03/06 04:14:37;;;;;;;4.50;2.20;;;;;;;2.34;85.47;99684.50;107184;1263;62032;-69
2023/03/06 04:17:04;;;;;;;5.50;2.40;;;;;;;2.35;85.94;99683.24;106678;1257;62328;-68
2023/03/06 04:19:31;;;;;;;4.40;2.10;;;;;;;2.36;85.70;99680.17;106650;1258;73514;-69
2023/03/06 04:21:58;;;;;;;6.70;2.20;;;;;;;2.35;85.87;99679.80;106665;1261;69977;-71
2023/03/06 04:24:27;;;;;;;5.40;2.10;;;;;;;2.34;85.85;99676.19;106600;1257;72513;-69
2023/03/06 04:26:54;;;;;;;5.40;2.20;;;;;;;2.34;85.97;99676.35;106700;1263;61179;-68
2023/03/06 04:29:21;;;;;;;5.30;2.10;;;;;;;2.34;85.86;99677.77;107054;1257;61134;-70
2023/03/06 04:31:47;;;;;;;6.20;2.40;;;;;;;2.35;86.03;99671.24;106671;1257;73744;-68
2023/03/06 04:34:14;;;;;;;4.30;2.10;;;;;;;2.33;85.67;99670.13;106792;1258;61235;-70
2023/03/06 04:36:44;;;;;;;6.90;2.70;;;;;;;2.35;85.86;99671.58;106749;1257;71546;-70
2023/03/06 04:39:11;;;;;;;5.00;2.60;;;;;;;2.34;85.98;99671.48;106813;1257;61281;-68
2023/03/06 04:41:41;;;;;;;5.40;2.50;;;;;;;2.35;86.12;99671.02;106404;1259;61208;-69
2023/03/06 04:44:08;;;;;;;4.80;2.60;;;;;;;2.37;85.73;99668.60;107011;1264;73474;-69
2023/03/06 04:46:35;;;;;;;6.00;2.40;;;;;;;2.37;86.10;99668.92;107023;1257;70136;-68
2023/03/06 04:49:02;;;;;;;7.20;2.40;;;;;;;2.37;85.97;99666.83;107082;1258;74205;-69
2023/03/06 04:51:30;;;;;;;4.50;2.30;;;;;;;2.38;85.92;99664.50;108323;1257;60328;-68
2023/03/06 04:53:56;;;;;;;6.20;2.50;;;;;;;2.38;86.25;99657.81;107795;1259;59975;-68
2023/03/06 04:56:23;;;;;;;4.60;2.20;;;;;;;2.40;85.94;99656.92;107627;1257;74471;-69
2023/03/06 04:58:50;;;;;;;7.40;2.20;;;;;;;2.41;86.06;99655.98;108568;1257;69597;-70
2023/03/06 05:01:17;;;;;;;3.40;2.10;;;;;;;2.41;85.96;99656.80;106779;1257;72368;-69
2023/03/06 05:03:44;;;;;;;5.40;2.20;;;;;;;2.44;86.12;99654.44;106396;1257;62500;-74
2023/03/06 05:06:11;;;;;;;6.80;2.30;;;;;;;2.44;86.24;99655.00;106498;1259;61141;-69
2023/03/06 05:08:38;;;;;;;4.50;2.20;;;;;;;2.45;86.34;99656.42;106687;1257;76323;-69
2023/03/06 05:11:04;;;;;;;5.50;2.30;;;;;;;2.45;86.79;99654.17;106412;1261;70918;-70
2023/03/06 05:13:31;;;;;;;5.00;2.80;;;;;;;2.46;86.88;99655.54;106444;1260;71486;-69
2023/03/06 05:16:04;;;;;;;8.00;2.70;;;;;;;2.48;86.71;99656.05;106380;1257;61740;-68
2023/03/06 05:18:32;;;;;;;7.20;2.90;;;;;;;2.48;87.13;99651.14;106492;1259;61251;-68
2023/03/06 05:21:05;;;;;;;5.20;2.90;;;;;;;2.49;87.37;99650.88;106280;1257;73795;-69
2023/03/06 05:23:35;;;;;;;6.20;3.00;;;;;;;2.51;87.32;99649.95;106479;1262;69979;-73
2023/03/06 05:26:08;;;;;;;6.10;2.80;;;;;;;2.52;87.52;99648.46;106209;1260;71332;-71
2023/03/06 05:28:35;;;;;;;7.30;3.00;;;;;;;2.52;87.66;99648.14;106475;1257;60071;-70
2023/03/06 05:31:02;;;;;;;5.40;2.60;;;;;;;2.51;87.90;99647.90;106494;1257;61301;-69
2023/03/06 05:33:34;;;;;;;6.90;2.90;;;;;;;2.51;88.25;99645.11;106525;1257;73499;-70
2023/03/06 05:36:01;;;;;;;6.10;2.90;;;;;;;2.49;88.60;99647.38;106169;1257;70929;-69
2023/03/06 05:38:28;;;;;;;5.90;3.00;;;;;;;2.48;88.49;99646.25;106569;1257;71488;-69
2023/03/06 05:40:55;;;;;;;5.50;3.30;;;;;;;2.48;88.99;99641.85;106427;1258;61351;-70
2023/03/06 05:43:21;;;;;;;8.80;3.70;;;;;;;2.49;88.95;99646.34;106533;1257;61462;-69
2023/03/06 05:45:51;;;;;;;6.90;3.30;;;;;;;2.49;89.04;99639.89;106671;1262;74528;-69
2023/03/06 05:48:18;;;;;;;6.40;3.10;;;;;;;2.50;88.98;99643.47;106743;1258;72417;-70
2023/03/06 05:50:45;;;;;;;6.90;3.40;;;;;;;2.49;89.47;99641.23;106682;1257;72880;-70
2023/03/06 05:53:12;;;;;;;7.50;3.50;;;;;;;2.51;89.52;99638.80;106938;1263;61342;-68
2023/03/06 05:55:38;;;;;;;7.70;3.40;;;;;;;2.51;89.66;99636.00;106380;1257;61240;-70
2023/03/06 05:58:05;;;;;;;9.30;3.40;;;;;;;2.52;89.72;99636.13;106122;1263;72172;-69
2023/03/06 06:00:32;;;;;;;5.60;3.10;;;;;;;2.52;89.69;99633.98;106801;1257;61135;-69
2023/03/06 06:03:00;;;;;;;6.10;3.20;;;;;;;2.50;89.63;99636.95;106800;1257;71736;-69
2023/03/06 06:05:27;;;;;;;6.80;2.90;;;;;;;2.48;89.67;99632.45;106768;1257;61288;-70
2023/03/06 06:07:54;;;;;;;8.30;3.00;;;;;;;2.45;90.32;99631.55;107134;1257;62408;-69
2023/03/06 06:10:21;;;;;;;6.30;3.20;;;;;;;2.43;90.11;99628.23;106825;1257;73457;-70
2023/03/06 06:12:48;;;;;;;9.30;3.50;;;;;;;2.44;90.24;99627.77;106230;1257;69695;-69
2023/03/06 06:15:15;;;;;;;7.50;3.50;;;;;;;2.46;90.31;99627.07;106987;1257;70729;-68
2023/03/06 06:17:42;;;;;;;6.40;3.30;;;;;;;2.48;90.38;99629.15;107125;1257;61254;-71
2023/03/06 06:20:10;;;;;;;7.40;3.60;;;;;;;2.48;90.32;99625.33;106859;1257;61273;-70
2023/03/06 06:22:37;;;;;;;8.90;3.60;;;;;;;2.48;90.79;99623.59;106760;1257;74447;-70
2023/03/06 06:25:05;;;;;;;9.10;3.70;;;;;;;2.48;90.49;99619.23;106957;1257;71014;-69
2023/03/06 06:27:32;;;;;;;6.90;3.40;;;;;;;2.45;90.69;99622.78;106196;1258;72396;-72
2023/03/06 06:29:58;;;;;;;8.00;3.30;;;;;;;2.42;90.98;99626.02;106618;1257;61356;-71
2023/03/06 06:32:25;;;;;;;7.10;3.50;;;;;;;2.37;91.18;99630.52;106586;1257;61220;-70
2023/03/06 06:34:52;;;;;;;9.90;4.20;;;;;;;2.38;91.18;99631.67;106694;1257;74695;-68
2023/03/06 06:37:22;;;;;;;13.20;4.80;;;;;;;2.39;91.27;99628.42;106194;1257;69785;-69
2023/03/06 06:39:51;;;;;;;10.20;4.20;;;;;;;2.43;91.32;99626.66;106458;1258;73994;-70
2023/03/06 06:42:20;;;;;;;8.50;5.00;;;;;;;2.44;91.41;99627.76;106319;1260;61349;-69
2023/03/06 06:45:04;;;;;;;8.90;5.20;;;;;;;2.45;91.42;99629.90;106462;1257;61318;-70
2023/03/06 06:47:32;;;;;;;7.20;4.70;;;;;;;2.50;91.36;99626.48;106567;1260;75209;-71
2023/03/06 06:50:03;;;;;;;8.30;5.10;;;;;;;2.50;91.51;99632.05;106868;1259;71257;-70
2023/03/06 06:52:29;;;;;;;9.30;5.10;;;;;;;2.49;90.98;99624.67;106725;1259;72148;-69
2023/03/06 06:54:56;;;;;;;8.40;4.90;;;;;;;2.50;91.47;99622.83;106339;1257;61204;-69
2023/03/06 06:57:23;;;;;;;7.20;4.30;;;;;;;2.48;91.56;99628.46;106445;1257;61164;-69
2023/03/06 06:59:50;;;;;;;8.50;4.40;;;;;;;2.43;91.97;99630.42;106698;1257;73253;-70
2023/03/06 07:02:19;;;;;;;7.80;4.90;;;;;;;2.43;91.86;99630.66;106455;1257;69500;-68
2023/03/06 07:04:47;;;;;;;9.40;5.40;;;;;;;2.48;91.83;99628.50;107262;1257;72665;-71
2023/03/06 07:07:30;;;;;;;12.80;5.60;;;;;;;2.54;92.52;99629.44;106279;1258;61828;-70
2023/03/06 07:09:57;;;;;;;10.10;5.60;;;;;;;2.60;92.13;99629.18;107024;1263;60242;-71
2023/03/06 07:12:24;;;;;;;9.00;5.50;;;;;;;2.62;91.79;99628.08;106510;1257;73935;-72
2023/03/06 07:14:50;;;;;;;12.60;6.20;;;;;;;2.65;91.63;99625.69;106799;1257;71178;-72
2023/03/06 07:17:17;;;;;;;10.10;5.20;;;;;;;2.71;91.80;99627.55;106386;1263;71450;-73
2023/03/06 07:19:44;;;;;;;7.10;4.40;;;;;;;2.77;91.83;99628.08;106658;1258;61240;-71
2023/03/06 07:22:14;;;;;;;8.00;4.50;;;;;;;2.78;91.37;99631.78;107464;1257;60403;-72
2023/03/06 07:24:41;;;;;;;7.30;4.80;;;;;;;2.81;91.57;99627.59;107272;1257;74377;-70
2023/03/06 07:27:08;;;;;;;10.00;5.00;;;;;;;2.83;91.05;99624.98;107193;1257;69870;-71
2023/03/06 07:29:35;;;;;;;6.70;5.00;;;;;;;2.84;90.94;99628.36;106726;1260;71726;-73
2023/03/06 07:32:03;;;;;;;8.10;4.70;;;;;;;2.85;91.10;99625.14;106880;1260;61253;-72
2023/03/06 07:34:30;;;;;;;7.00;4.60;;;;;;;2.86;91.11;99624.02;106991;1257;61317;-71
2023/03/06 07:36:59;;;;;;;6.20;4.40;;;;;;;2.87;90.96;99626.88;107019;1257;73443;-71
2023/03/06 07:39:27;;;;;;;7.50;4.10;;;;;;;2.89;91.02;99629.16;106669;1257;69676;-71
2023/03/06 07:41:54;;;;;;;6.70;3.90;;;;;;;2.89;90.83;99630.19;106914;1258;71382;-71
2023/03/06 07:44:21;;;;;;;6.00;3.70;;;;;;;2.91;91.03;99631.57;106864;1257;61228;-72
2023/03/06 07:46:48;;;;;;;6.00;3.70;;;;;;;2.92;90.84;99632.59;106694;1257;61263;-71
2023/03/06 07:49:15;;;;;;;6.80;3.80;;;;;;;2.91;90.61;99632.67;106905;1259;75064;-72
2023/03/06 07:51:43;;;;;;;5.70;3.40;;;;;;;2.87;90.98;99630.23;107006;1258;71714;-72
2023/03/06 07:54:10;;;;;;;6.70;3.90;;;;;;;2.80;91.03;99631.61;107883;1257;72888;-71
2023/03/06 07:56:37;;;;;;;7.10;4.00;;;;;;;2.79;91.27;99629.54;106970;1259;61333;-72
2023/03/06 07:59:03;;;;;;;7.30;4.30;;;;;;;2.83;91.54;99630.71;108024;1257;61170;-70
2023/03/06 08:01:30;;;;;;;7.40;3.90;;;;;;;2.86;91.56;99632.14;107112;1257;73510;-72
2023/03/06 08:03:58;;;;;;;5.10;3.70;;;;;;;2.86;91.21;99636.52;106664;1257;69952;-72
2023/03/06 08:06:29;;;;;;;5.60;3.50;;;;;;;2.81;90.95;99636.69;106925;1257;72994;-71
2023/03/06 08:08:56;;;;;;;6.30;3.90;;;;;;;2.73;90.57;99636.52;106892;1257;61292;-72
2023/03/06 08:11:26;;;;;;;4.90;3.20;;;;;;;2.58;90.80;99641.92;106936;1257;59543;-73
2023/03/06 08:13:54;;;;;;;6.20;3.70;;;;;;;2.42;91.00;99642.45;106979;1257;74847;-71
2023/03/06 08:16:25;;;;;;;6.30;3.40;;;;;;;2.38;91.25;99645.28;106915;1258;72084;-72
2023/03/06 08:18:53;;;;;;;4.30;2.70;;;;;;;2.36;91.46;99649.27;106490;1257;71192;-71
2023/03/06 08:21:22;;;;;;;4.90;2.30;;;;;;;2.37;91.58;99649.89;106545;1257;61121;-71
2023/03/06 08:23:50;;;;;;;6.10;2.60;;;;;;;2.37;91.71;99650.04;106805;1257;61174;-71
2023/03/06 08:26:22;;;;;;;3.60;2.30;;;;;;;2.42;91.77;99654.60;106661;1258;73552;-70
2023/03/06 08:28:51;;;;;;;3.80;2.80;;;;;;;2.46;91.93;99649.20;106514;1259;69967;-72
2023/03/06 08:31:24;;;;;;;6.90;2.90;;;;;;;2.49;91.79;99648.73;106615;1258;72506;-72
2023/03/06 08:33:52;;;;;;;5.10;3.30;;;;;;;2.54;92.07;99651.89;106697;1257;61256;-72
2023/03/06 08:36:19;;;;;;;3.60;2.70;;;;;;;2.57;91.75;99652.54;106702;1257;61296;-73
2023/03/06 08:38:47;;;;;;;3.80;2.50;;;;;;;2.56;91.38;99654.86;106486;1258;72828;-73
2023/03/06 08:41:14;;;;;;;5.60;3.10;;;;;;;2.52;91.48;99654.61;106473;1261;69155;-71
2023/03/06 08:43:41;;;;;;;5.50;3.40;;;;;;;2.51;91.34;99655.23;106460;1257;71883;-71
2023/03/06 08:46:09;;;;;;;4.80;3.30;;;;;;;2.55;92.13;99652.50;106879;1257;62092;-71
2023/03/06 08:48:36;;;;;;;5.70;3.70;;;;;;;2.60;91.90;99656.95;106377;1257;612002;-71
2023/03/06 08:51:03;;;;;;;5.90;3.40;;;;;;;2.60;91.48;99656.98;106526;1258;74440;-72
2023/03/06 08:53:30;;;;;;;4.90;3.60;;;;;;;2.59;91.81;99659.14;106690;1257;71043;-71
2023/03/06 08:56:24;;;;;;;5.40;3.40;;;;;;;2.49;91.58;99663.95;106557;1257;72725;-70
2023/03/06 08:58:52;;;;;;;5.00;3.30;;;;;;;2.42;91.42;99661.92;106251;1257;62584;-73
2023/03/06 09:01:27;;;;;;;3.60;2.10;;;;;;;2.39;91.84;99663.48;106496;1258;63123;-72
2023/03/06 09:03:56;;;;;;;3.60;1.90;;;;;;;2.29;91.49;99665.67;106619;1258;74756;-71
2023/03/06 09:06:26;;;;;;;2.30;1.70;;;;;;;2.18;91.70;99664.64;106660;1259;69817;-72
2023/03/06 09:08:54;;;;;;;2.80;1.60;;;;;;;2.16;92.00;99666.05;106467;1258;72207;-71
2023/03/06 09:11:24;;;;;;;4.30;1.70;;;;;;;2.18;92.19;99666.88;106910;1258;61333;-71
2023/03/06 09:13:52;;;;;;;3.00;1.40;;;;;;;2.15;92.00;99670.35;106658;1259;61583;-71
2023/03/06 09:16:20;;;;;;;2.50;1.40;;;;;;;2.08;92.19;99671.51;106809;1257;73406;-71
2023/03/06 09:18:49;;;;;;;3.70;1.70;;;;;;;2.00;92.13;99675.88;106557;1257;72107;-70
2023/03/06 09:21:16;;;;;;;3.00;1.50;;;;;;;1.91;92.41;99679.70;106879;1257;72848;-71
2023/03/06 09:23:43;;;;;;;2.30;1.30;;;;;;;1.82;92.66;99681.75;106959;1257;61240;-74
2023/03/06 09:26:11;;;;;;;2.60;1.30;;;;;;;1.72;93.06;99681.85;106556;1258;61231;-71
2023/03/06 09:28:39;;;;;;;2.60;1.30;;;;;;;1.65;93.35;99692.41;106657;1257;73912;-71
2023/03/06 09:31:08;;;;;;;3.30;1.40;;;;;;;1.61;93.43;99691.04;106798;1257;70096;-70
2023/03/06 09:33:35;;;;;;;3.50;1.70;;;;;;;1.62;93.68;99691.83;106560;1257;71418;-71
2023/03/06 09:36:02;;;;;;;2.90;1.40;;;;;;;1.65;93.97;99689.29;106905;1257;61885;-73
2023/03/06 09:38:30;;;;;;;3.60;1.30;;;;;;;1.65;93.87;99693.83;106835;1259;60124;-73
2023/03/06 09:40:56;;;;;;;2.40;1.10;;;;;;;1.63;93.76;99694.00;106683;1259;75581;-73
2023/03/06 09:43:29;;;;;;;2.70;1.30;;;;;;;1.64;93.89;99694.12;106799;1258;68853;-72
2023/03/06 09:45:58;;;;;;;2.30;1.10;;;;;;;1.65;93.43;99694.02;106738;1258;71222;-72
2023/03/06 09:48:41;;;;;;;2.50;1.30;;;;;;;1.70;93.66;99695.80;106415;1259;61307;-74
2023/03/06 09:51:15;;;;;;;3.30;1.60;;;;;;;1.72;93.60;99691.29;106624;1257;64030;-72
2023/03/06 09:54:10;;;;;;;2.80;1.40;;;;;;;1.72;93.20;99692.71;106496;1257;74109;-72
2023/03/06 09:56:38;;;;;;;3.20;1.30;;;;;;;1.72;93.49;99692.98;106746;1257;70182;-72
2023/03/06 09:59:12;;;;;;;3.50;1.50;;;;;;;1.72;93.56;99694.07;106397;1257;72668;-72
2023/03/06 10:01:43;;;;;;;3.40;1.50;;;;;;;1.74;93.41;99691.74;106470;1258;61227;-73
2023/03/06 10:04:36;;;;;;;3.80;1.30;;;;;;;1.78;93.49;99693.14;106790;1258;61551;-73
2023/03/06 10:07:17;;;;;;;2.50;1.10;;;;;;;1.83;93.36;99692.70;106701;1258;73867;-72
2023/03/06 10:09:56;;;;;;;2.90;1.50;;;;;;;1.86;92.79;99691.71;106850;1258;69911;-74
2023/03/06 10:12:27;;;;;;;2.60;1.50;;;;;;;1.90;93.05;99691.50;106732;1257;72185;-73
2023/03/06 10:15:22;;;;;;;3.20;1.40;;;;;;;1.95;93.03;99689.61;106378;1259;61907;-75
2023/03/06 10:17:49;;;;;;;2.40;1.30;;;;;;;2.01;92.94;99691.48;106887;1257;62249;-72
2023/03/06 10:20:27;;;;;;;3.00;1.30;;;;;;;2.09;92.93;99687.61;106828;1257;73347;-74
2023/03/06 10:23:34;;;;;;;2.30;1.30;;;;;;;2.13;92.33;99690.40;106947;1261;70323;-73
2023/03/06 10:26:09;;;;;;;1.90;1.10;;;;;;;2.14;91.91;99688.59;107096;1257;71302;-72
2023/03/06 10:29:11;;;;;;;2.30;1.10;;;;;;;2.19;91.87;99688.28;107107;1259;61356;-71
2023/03/06 10:31:48;;;;;;;1.90;1.10;;;;;;;2.23;91.89;99686.08;106695;1261;61612;-71
2023/03/06 10:34:26;;;;;;;2.70;1.20;;;;;;;2.20;90.71;99684.34;106980;1257;74719;-72
2023/03/06 10:36:54;;;;;;;2.30;1.10;;;;;;;2.22;91.21;99683.28;106806;1257;70961;-71
2023/03/06 10:39:21;;;;;;;4.30;1.20;;;;;;;2.24;90.93;99681.36;106629;1259;72426;-71
2023/03/06 10:41:48;;;;;;;4.90;1.70;;;;;;;2.29;90.80;99684.88;106528;1258;61374;-71
2023/03/06 10:44:17;;;;;;;2.80;1.40;;;;;;;2.31;90.70;99685.52;106714;1257;61251;-72
2023/03/06 10:46:46;;;;;;;2.50;1.30;;;;;;;2.34;90.95;99682.64;106896;1262;73181;-73
2023/03/06 10:49:28;;;;;;;4.50;1.10;;;;;;;2.43;91.30;99680.73;106887;1257;70140;-73
2023/03/06 10:52:01;;;;;;;1.70;1.00;;;;;;;2.44;90.61;99683.19;106982;1257;72381;-74
2023/03/06 10:54:38;;;;;;;2.10;0.90;;;;;;;2.43;89.68;99685.78;106541;1257;62298;-72
2023/03/06 10:57:19;;;;;;;1.80;0.70;;;;;;;2.50;90.29;99680.80;106824;1261;60116;-70
2023/03/06 11:00:07;;;;;;;2.20;0.70;;;;;;;2.60;89.96;99678.79;106662;1257;73458;-74
2023/03/06 11:02:36;;;;;;;2.00;0.70;;;;;;;2.69;89.48;99682.58;106577;1258;70398;-71
2023/03/06 11:05:04;;;;;;;2.30;0.60;;;;;;;2.85;89.31;99682.08;106773;1257;72078;-72
2023/03/06 11:07:35;;;;;;;2.60;1.00;;;;;;;3.02;88.41;99677.27;106512;1257;62322;-73
2023/03/06 11:10:06;;;;;;;1.60;0.80;;;;;;;3.24;88.32;99679.17;106899;1258;61235;-73
2023/03/06 11:12:38;;;;;;;2.10;1.00;;;;;;;3.44;87.40;99681.11;106781;1257;72998;-72
2023/03/06 11:15:17;;;;;;;1.90;0.80;;;;;;;3.56;86.66;99685.02;106621;1258;70948;-71
2023/03/06 11:18:04;;;;;;;1.80;0.70;;;;;;;3.56;85.69;99691.52;106839;1258;72729;-72
2023/03/06 11:20:39;;;;;;;2.20;0.80;;;;;;;3.47;84.87;99698.18;106784;1257;61611;-71
2023/03/06 11:23:25;;;;;;;2.20;0.70;;;;;;;3.36;84.52;99696.48;106648;1257;62825;-72
2023/03/06 11:26:14;;;;;;;1.60;0.70;;;;;;;3.26;83.72;99702.75;106775;1258;73192;-71
2023/03/06 11:29:10;;;;;;;2.90;0.90;;;;;;;3.15;84.07;99701.16;106763;1259;69939;-72
2023/03/06 11:31:54;;;;;;;2.80;1.00;;;;;;;3.12;84.14;99704.14;107010;1257;73158;-72
2023/03/06 11:34:39;;;;;;;4.40;1.30;;;;;;;3.10;84.61;99702.23;106611;1257;61355;-70
2023/03/06 11:37:44;;;;;;;2.90;1.40;;;;;;;3.12;84.83;99709.52;106751;1258;61308;-72
2023/03/06 11:40:23;;;;;;;4.30;1.40;;;;;;;3.14;84.81;99708.45;106589;1257;74712;-72
2023/03/06 11:43:13;;;;;;;6.20;2.20;;;;;;;3.13;83.55;99709.75;106714;1257;70466;-73
2023/03/06 11:45:47;;;;;;;6.10;2.00;;;;;;;3.17;84.09;99708.71;106558;1257;71989;-72
2023/03/06 11:48:14;;;;;;;5.00;1.50;;;;;;;3.23;84.00;99708.40;106856;1257;61360;-71
2023/03/06 11:50:51;;;;;;;7.10;1.70;;;;;;;3.36;84.05;99705.77;106723;1257;61264;-71
2023/03/06 11:53:27;;;;;;;6.50;2.00;;;;;;;3.54;84.05;99703.96;106948;1257;74803;-71